Time;durP1;ratioP1;P1;durP2;ratioP2;P2;SDS_P1;SDS_P2;PMS_P1;PMS_P2;Temp;Humidity;BMP_temperature;BMP_pressure;BME280_temperature;BME280_humidity;BME280_pressure;Samples;Min_cycle;Max_cycle;Signal;HPM_P1;HPM_P2
2023/05/27 00:02:02;;;;;;;16.90;6.50;;;;;;;12.31;66.85;97841.64;108771;1251;101930;-75
2023/05/27 00:04:30;;;;;;;17.70;6.50;;;;;;;12.23;66.96;97840.70;108751;1251;99938;-76
2023/05/27 00:06:58;;;;;;;10.40;5.40;;;;;;;12.18;67.05;97836.44;108727;1251;94292;-78
2023/05/27 00:09:27;;;;;;;22.00;5.90;;;;;;;12.14;67.17;97835.14;108759;1251;94737;-79
2023/05/27 00:11:55;;;;;;;19.00;6.20;;;;;;;12.07;67.25;97836.03;108739;1251;102294;-75
2023/05/27 00:14:24;;;;;;;16.00;5.80;;;;;;;11.99;67.26;97836.48;108733;1251;101543;-75
2023/05/27 00:16:52;;;;;;;18.90;6.60;;;;;;;11.95;67.42;97833.92;108813;1251;108792;-75
2023/05/27 00:19:20;;;;;;;16.20;6.50;;;;;;;11.90;67.49;97833.18;108720;1253;94232;-76
2023/05/27 00:21:48;;;;;;;12.80;6.50;;;;;;;11.81;67.64;97830.89;108694;1251;94675;-75
2023/05/27 00:24:16;;;;;;;14.60;6.50;;;;;;;11.76;67.83;97831.55;108655;1255;100996;-78
2023/05/27 00:26:44;;;;;;;16.30;6.50;;;;;;;11.74;68.08;97828.73;108765;1251;101751;-76
2023/05/27 00:29:12;;;;;;;14.10;6.80;;;;;;;11.72;68.05;97831.48;108777;1251;100280;-75
2023/05/27 00:31:40;;;;;;;14.50;7.50;;;;;;;11.68;68.14;97835.32;108745;1251;94241;-74
2023/05/27 00:34:09;;;;;;;18.20;6.90;;;;;;;11.60;68.15;97837.60;108771;1251;94246;-77
2023/05/27 00:36:37;;;;;;;13.00;7.70;;;;;;;11.55;68.32;97838.52;108764;1251;102408;-78
2023/05/27 00:39:05;;;;;;;11.70;6.70;;;;;;;11.49;68.51;97837.47;108758;1251;101357;-75
2023/05/27 00:41:34;;;;;;;14.00;7.40;;;;;;;11.45;68.75;97837.02;108786;1251;99653;-76
2023/05/27 00:44:03;;;;;;;17.20;7.80;;;;;;;11.42;68.55;97835.80;108787;1251;94194;-75
2023/05/27 00:46:31;;;;;;;14.40;7.30;;;;;;;11.34;68.52;97836.66;108757;1251;94850;-78
2023/05/27 00:48:59;;;;;;;14.40;7.30;;;;;;;11.27;68.49;97836.98;108743;1251;102231;-75
2023/05/27 00:51:28;;;;;;;13.00;6.50;;;;;;;11.18;68.63;97839.25;108733;1252;102192;-76
2023/05/27 00:53:56;;;;;;;12.20;6.10;;;;;;;11.12;68.76;97845.87;108624;1251;99878;-75
2023/05/27 00:56:25;;;;;;;15.90;6.40;;;;;;;11.09;69.08;97848.09;108773;1251;94172;-78
2023/05/27 00:58:53;;;;;;;19.00;8.10;;;;;;;11.06;69.13;97851.19;108675;1251;95136;-75
2023/05/27 01:01:25;;;;;;;16.10;6.10;;;;;;;11.00;69.15;97853.33;108768;1251;102302;-78
2023/05/27 01:03:55;;;;;;;11.30;6.10;;;;;;;10.87;69.18;97850.25;108666;1251;101519;-74
2023/05/27 01:06:43;;;;;;;11.00;5.80;;;;;;;10.80;69.29;97849.89;108740;1251;107089;-77
2023/05/27 01:09:40;;;;;;;18.20;6.40;;;;;;;10.78;69.59;97846.31;108776;1251;94211;-75
2023/05/27 01:12:26;;;;;;;12.10;6.40;;;;;;;10.78;69.77;97844.94;108758;1251;95943;-75
2023/05/27 01:14:58;;;;;;;13.80;6.50;;;;;;;10.76;69.77;97850.52;108737;1251;102062;-75
2023/05/27 01:17:28;;;;;;;16.10;7.00;;;;;;;10.76;69.86;97851.48;108607;1250;101565;-75
2023/05/27 01:19:57;;;;;;;15.90;6.60;;;;;;;10.74;69.84;97851.03;108525;1253;100460;-78
2023/05/27 01:22:30;;;;;;;15.80;6.50;;;;;;;10.69;69.85;97849.18;108769;1251;94449;-76
2023/05/27 01:24:59;;;;;;;13.60;6.60;;;;;;;10.60;69.81;97848.16;108775;1251;94698;-75
2023/05/27 01:27:27;;;;;;;13.40;6.40;;;;;;;10.59;70.01;97848.15;108594;1253;101734;-76
2023/05/27 01:29:56;;;;;;;15.90;5.80;;;;;;;10.53;70.05;97844.70;108649;1251;101212;-78
2023/05/27 01:32:51;;;;;;;14.20;5.50;;;;;;;10.48;70.15;97846.52;108745;1251;99493;-75
2023/05/27 01:35:24;;;;;;;14.00;6.50;;;;;;;10.44;70.13;97850.07;108739;1251;94468;-75
2023/05/27 01:37:55;;;;;;;14.00;6.10;;;;;;;10.41;70.30;97847.96;108672;1251;95170;-75
2023/05/27 01:40:25;;;;;;;11.40;6.70;;;;;;;10.35;70.32;97848.70;108824;1251;102484;-75
2023/05/27 01:42:54;;;;;;;15.00;6.30;;;;;;;10.30;70.46;97846.41;108780;1252;101317;-78
2023/05/27 01:45:22;;;;;;;11.90;6.20;;;;;;;10.25;70.49;97843.43;108753;1251;98928;-79
2023/05/27 01:47:51;;;;;;;17.10;6.80;;;;;;;10.20;70.51;97841.44;108703;1251;94254;-75
2023/05/27 01:50:19;;;;;;;12.90;6.20;;;;;;;10.17;70.69;97840.96;108756;1251;94275;-74
2023/05/27 01:52:47;;;;;;;12.50;5.80;;;;;;;10.15;70.69;97841.64;108787;1253;101472;-77
2023/05/27 01:55:17;;;;;;;15.40;6.80;;;;;;;10.11;70.61;97839.71;108794;1251;101439;-76
2023/05/27 01:57:45;;;;;;;12.10;6.40;;;;;;;10.01;70.69;97839.48;108615;1253;99959;-75
2023/05/27 02:00:15;;;;;;;13.90;6.60;;;;;;;9.97;70.71;97840.90;108794;1251;94259;-75
2023/05/27 02:02:43;;;;;;;14.00;5.80;;;;;;;9.93;70.77;97841.03;108768;1251;95101;-75
2023/05/27 02:05:11;;;;;;;10.00;6.20;;;;;;;9.91;70.77;97840.47;108781;1251;102010;-75
2023/05/27 02:07:40;;;;;;;15.80;6.60;;;;;;;9.89;70.80;97839.15;108766;1252;101465;-75
2023/05/27 02:10:09;;;;;;;11.10;6.70;;;;;;;9.85;70.87;97839.81;108714;1251;100163;-75
2023/05/27 02:12:37;;;;;;;15.50;7.00;;;;;;;9.82;70.85;97840.95;108747;1251;94430;-75
2023/05/27 02:15:05;;;;;;;12.10;6.20;;;;;;;9.80;70.88;97840.44;108798;1251;94664;-77
2023/05/27 02:17:33;;;;;;;14.10;6.30;;;;;;;9.77;70.93;97843.21;108750;1254;102162;-75
2023/05/27 02:20:03;;;;;;;13.40;6.50;;;;;;;9.73;71.10;97847.88;108793;1251;101476;-75
2023/05/27 02:22:31;;;;;;;15.30;6.60;;;;;;;9.66;71.03;97846.55;108778;1251;99985;-79
2023/05/27 02:24:59;;;;;;;12.90;6.90;;;;;;;9.55;71.19;97851.14;108801;1251;95299;-75
2023/05/27 02:27:28;;;;;;;12.20;6.70;;;;;;;9.52;71.37;97849.59;108757;1251;94666;-78
2023/05/27 02:29:56;;;;;;;13.60;6.00;;;;;;;9.50;71.36;97856.45;108766;1251;102322;-78
2023/05/27 02:32:24;;;;;;;18.30;6.20;;;;;;;9.44;71.31;97855.60;108810;1251;101465;-75
2023/05/27 02:34:52;;;;;;;13.60;6.10;;;;;;;9.41;71.40;97855.95;108555;1251;100143;-77
2023/05/27 02:37:20;;;;;;;14.20;6.70;;;;;;;9.38;71.36;97857.76;108771;1251;94517;-75
2023/05/27 02:39:48;;;;;;;14.80;6.60;;;;;;;9.35;71.37;97860.30;108782;1251;94675;-78
2023/05/27 02:42:16;;;;;;;12.40;6.10;;;;;;;9.27;71.45;97862.38;108721;1252;102107;-75
2023/05/27 02:44:44;;;;;;;17.20;6.80;;;;;;;9.24;71.57;97865.82;108811;1251;101439;-79
2023/05/27 02:47:12;;;;;;;13.60;6.90;;;;;;;9.23;71.68;97869.54;108714;1251;100011;-75
2023/05/27 02:49:40;;;;;;;12.70;6.20;;;;;;;9.23;71.65;97874.79;108754;1251;94361;-75
2023/05/27 02:52:08;;;;;;;17.80;6.70;;;;;;;9.19;71.60;97877.95;108642;1251;94701;-76
2023/05/27 02:54:36;;;;;;;15.30;6.10;;;;;;;9.15;71.69;97881.46;108824;1251;102416;-75
2023/05/27 02:57:04;;;;;;;13.60;6.80;;;;;;;9.14;71.81;97886.35;108779;1251;100362;-75
2023/05/27 02:59:32;;;;;;;11.30;7.10;;;;;;;9.13;71.81;97890.27;108614;1257;99189;-75
2023/05/27 03:02:00;;;;;;;10.70;6.20;;;;;;;9.07;71.69;97890.61;108734;1251;94487;-77
2023/05/27 03:04:30;;;;;;;14.80;6.70;;;;;;;8.98;71.74;97890.44;108780;1252;94382;-78
2023/05/27 03:06:58;;;;;;;11.70;6.40;;;;;;;8.95;71.95;97891.88;108837;1251;102209;-75
2023/05/27 03:09:26;;;;;;;14.80;6.30;;;;;;;8.94;72.02;97892.23;108827;1251;101795;-75
2023/05/27 03:11:54;;;;;;;12.30;6.70;;;;;;;8.93;72.20;97891.84;108756;1253;98877;-76
2023/05/27 03:14:22;;;;;;;14.70;7.20;;;;;;;8.92;72.21;97890.99;108797;1251;94193;-78
2023/05/27 03:16:50;;;;;;;11.40;6.30;;;;;;;8.91;72.12;97893.64;108786;1251;94329;-74
2023/05/27 03:19:18;;;;;;;16.80;6.70;;;;;;;8.92;72.18;97896.96;108807;1253;102209;-76
2023/05/27 03:21:46;;;;;;;13.40;7.40;;;;;;;8.92;72.26;97902.25;108753;1251;101457;-76
2023/05/27 03:24:15;;;;;;;15.50;7.40;;;;;;;8.91;72.32;97900.14;108778;1251;109782;-74
2023/05/27 03:26:43;;;;;;;19.50;6.80;;;;;;;8.90;72.36;97905.76;108810;1251;94228;-77
2023/05/27 03:29:11;;;;;;;13.80;6.60;;;;;;;8.89;72.29;97905.77;108588;1252;94594;-76
2023/05/27 03:31:39;;;;;;;13.60;6.90;;;;;;;8.87;72.20;97907.25;108801;1251;101445;-78
2023/05/27 03:34:07;;;;;;;12.60;7.50;;;;;;;8.87;72.32;97908.70;108815;1251;101491;-78
2023/05/27 03:36:37;;;;;;;17.10;7.90;;;;;;;8.86;72.35;97911.88;108754;1251;100151;-76
2023/05/27 03:39:05;;;;;;;11.00;6.70;;;;;;;8.86;72.48;97912.81;108757;1252;94256;-75
2023/05/27 03:41:33;;;;;;;14.00;7.40;;;;;;;8.86;72.48;97915.88;108793;1251;95138;-77
2023/05/27 03:44:01;;;;;;;14.00;6.80;;;;;;;8.84;72.51;97918.25;108841;1252;102115;-74
2023/05/27 03:46:30;;;;;;;14.40;8.40;;;;;;;8.77;72.61;97919.29;108588;1253;100441;-74
2023/05/27 03:48:58;;;;;;;35.60;16.50;;;;;;;8.76;72.76;97917.95;108772;1251;99892;-77
2023/05/27 03:51:26;;;;;;;46.00;25.30;;;;;;;8.77;72.91;97913.23;108798;1251;95727;-73
2023/05/27 03:53:54;;;;;;;50.40;29.00;;;;;;;8.79;73.10;97912.08;108796;1251;94283;-74
2023/05/27 03:56:22;;;;;;;38.20;16.90;;;;;;;8.83;73.23;97913.19;108780;1251;102221;-73
2023/05/27 03:58:51;;;;;;;37.30;20.50;;;;;;;8.85;73.22;97912.69;108814;1252;100658;-73
2023/05/27 04:01:20;;;;;;;60.40;30.00;;;;;;;8.88;73.28;97913.46;108659;1251;217034;-73
2023/05/27 04:03:48;;;;;;;69.10;36.30;;;;;;;8.91;73.25;97918.48;108645;1251;94477;-73
2023/05/27 04:06:16;;;;;;;50.20;27.20;;;;;;;8.94;73.27;97920.58;108825;1251;94302;-73
2023/05/27 04:08:44;;;;;;;41.10;22.10;;;;;;;8.98;73.25;97922.62;108647;1253;102149;-74
2023/05/27 04:11:13;;;;;;;33.30;19.40;;;;;;;9.02;73.32;97923.54;108850;1251;101283;-77
2023/05/27 04:13:42;;;;;;;37.20;20.20;;;;;;;9.06;73.45;97925.40;108756;1251;100111;-72
2023/05/27 04:16:10;;;;;;;43.60;20.20;;;;;;;9.11;73.38;97923.27;108797;1253;94255;-74
2023/05/27 04:18:38;;;;;;;37.70;20.00;;;;;;;9.13;73.51;97921.10;108795;1251;94432;-74
2023/05/27 04:21:06;;;;;;;37.40;20.20;;;;;;;9.17;73.49;97922.80;108796;1251;102494;-75
2023/05/27 04:23:35;;;;;;;32.80;18.10;;;;;;;9.22;73.41;97922.18;108872;1252;101403;-74
2023/05/27 04:26:04;;;;;;;36.00;16.90;;;;;;;9.26;73.52;97919.14;108781;1251;100045;-73
2023/05/27 04:28:34;;;;;;;35.20;17.30;;;;;;;9.30;73.65;97923.10;108637;1253;94365;-74
2023/05/27 04:31:02;;;;;;;33.90;18.20;;;;;;;9.35;73.69;97930.08;108839;1251;94626;-77
2023/05/27 04:33:30;;;;;;;39.30;20.00;;;;;;;9.38;73.69;97935.73;108650;1251;102387;-75
2023/05/27 04:35:58;;;;;;;36.00;18.70;;;;;;;9.42;73.67;97935.21;108819;1253;101432;-74
2023/05/27 04:38:26;;;;;;;31.50;16.70;;;;;;;9.46;73.75;97936.50;108633;1251;99953;-74
2023/05/27 04:40:54;;;;;;;33.00;13.20;;;;;;;9.51;73.75;97936.52;108733;1253;94260;-75
2023/05/27 04:43:23;;;;;;;26.10;12.60;;;;;;;9.56;73.88;97936.23;108628;1251;95112;-73
2023/05/27 04:45:51;;;;;;;19.30;9.80;;;;;;;9.62;73.77;97938.20;108790;1251;101912;-74
2023/05/27 04:48:23;;;;;;;16.30;9.60;;;;;;;9.67;73.86;97936.80;108808;1252;101226;-76
2023/05/27 04:50:53;;;;;;;16.00;9.50;;;;;;;9.72;73.87;97937.23;108785;1251;100010;-74
2023/05/27 04:53:21;;;;;;;20.30;9.00;;;;;;;9.77;74.14;97937.52;108778;1253;94208;-73
2023/05/27 04:55:49;;;;;;;18.20;8.90;;;;;;;9.82;74.16;97940.71;108598;1253;94559;-74
2023/05/27 04:58:17;;;;;;;12.40;8.30;;;;;;;9.87;74.22;97941.61;108804;1251;102374;-76
2023/05/27 05:00:52;;;;;;;17.80;8.40;;;;;;;9.93;74.21;97942.34;108777;1251;101712;-74
2023/05/27 05:03:36;;;;;;;16.80;8.90;;;;;;;9.98;74.20;97942.16;108727;1251;98667;-74
2023/05/27 05:06:04;;;;;;;14.30;8.20;;;;;;;10.03;74.04;97944.71;108706;1251;94209;-75
2023/05/27 05:08:32;;;;;;;18.80;9.00;;;;;;;10.09;74.10;97943.31;108722;1252;94764;-74
2023/05/27 05:11:00;;;;;;;18.10;8.80;;;;;;;10.15;73.96;97946.44;108792;1251;102302;-74
2023/05/27 05:13:29;;;;;;;16.10;8.40;;;;;;;10.20;74.00;97939.73;108535;1253;100622;-74
2023/05/27 05:15:57;;;;;;;16.30;8.80;;;;;;;10.26;74.04;97938.41;108774;1251;100327;-73
2023/05/27 05:18:25;;;;;;;15.60;9.20;;;;;;;10.33;73.80;97935.73;108560;1251;94289;-74
2023/05/27 05:20:53;;;;;;;15.70;8.80;;;;;;;10.40;74.02;97934.77;108808;1251;94700;-74
2023/05/27 05:23:21;;;;;;;17.90;8.50;;;;;;;10.45;73.99;97935.23;108627;1252;102315;-74
2023/05/27 05:25:54;;;;;;;21.60;8.50;;;;;;;10.50;73.97;97931.23;108799;1251;100358;-74
2023/05/27 05:28:24;;;;;;;19.90;8.60;;;;;;;10.57;73.99;97928.29;108755;1253;100575;-74
2023/05/27 05:30:52;;;;;;;18.10;9.60;;;;;;;10.64;73.89;97923.09;108750;1251;94219;-74
2023/05/27 05:33:20;;;;;;;18.60;8.70;;;;;;;10.72;73.73;97928.21;108797;1253;94681;-74
2023/05/27 05:35:48;;;;;;;17.90;8.90;;;;;;;10.76;73.63;97923.48;108762;1251;102401;-77
2023/05/27 05:38:16;;;;;;;19.20;8.00;;;;;;;10.84;73.77;97921.54;108629;1251;101425;-74
2023/05/27 05:40:48;;;;;;;18.40;9.20;;;;;;;10.93;73.46;97919.30;108763;1251;100114;-73
2023/05/27 05:43:16;;;;;;;15.90;8.90;;;;;;;11.00;73.27;97918.16;108744;1251;94455;-73
2023/05/27 05:45:44;;;;;;;16.90;8.10;;;;;;;11.10;73.21;97920.60;108661;1251;94595;-73
2023/05/27 05:48:12;;;;;;;19.80;8.40;;;;;;;11.21;72.98;97916.95;108789;1253;102417;-76
2023/05/27 05:50:41;;;;;;;13.00;7.80;;;;;;;11.32;72.79;97914.98;108684;1251;100316;-74
2023/05/27 05:53:09;;;;;;;14.70;8.00;;;;;;;11.39;72.94;97912.17;108741;1251;100255;-74
2023/05/27 05:55:38;;;;;;;19.30;8.20;;;;;;;11.43;73.11;97915.36;108742;1251;94218;-76
2023/05/27 05:58:06;;;;;;;16.10;8.20;;;;;;;11.46;73.14;97918.70;108793;1251;94685;-77
2023/05/27 06:00:35;;;;;;;15.20;7.50;;;;;;;11.51;72.76;97918.54;108804;1251;102181;-76
2023/05/27 06:03:03;;;;;;;12.10;7.10;;;;;;;11.60;72.61;97923.62;108758;1251;109744;-73
2023/05/27 06:05:31;;;;;;;19.00;7.70;;;;;;;11.69;72.30;97923.23;108773;1251;100107;-75
2023/05/27 06:07:59;;;;;;;17.10;8.00;;;;;;;11.77;72.43;97929.62;108767;1253;94325;-74
2023/05/27 06:10:27;;;;;;;12.90;6.70;;;;;;;11.84;72.35;97928.55;108768;1251;94697;-77
2023/05/27 06:12:55;;;;;;;16.50;8.30;;;;;;;11.93;72.32;97933.73;108837;1251;102652;-76
2023/05/27 06:15:23;;;;;;;15.00;6.30;;;;;;;12.04;71.92;97935.77;108657;1251;101457;-74
2023/05/27 06:17:51;;;;;;;14.50;6.30;;;;;;;12.15;71.62;97935.10;108752;1251;100123;-77
2023/05/27 06:20:20;;;;;;;16.60;7.10;;;;;;;12.27;71.14;97935.48;108733;1253;94294;-77
2023/05/27 06:22:48;;;;;;;13.20;7.40;;;;;;;12.40;70.95;97938.34;108812;1252;94823;-77
2023/05/27 06:25:16;;;;;;;13.60;5.80;;;;;;;12.52;70.55;97938.20;108792;1251;102999;-75
2023/05/27 06:27:44;;;;;;;16.50;6.60;;;;;;;12.60;70.08;97939.31;108814;1251;101322;-74
2023/05/27 06:30:13;;;;;;;17.60;6.60;;;;;;;12.71;70.03;97938.98;108734;1251;99892;-77
2023/05/27 06:32:41;;;;;;;13.60;6.30;;;;;;;12.83;69.81;97944.22;108731;1251;94331;-74
2023/05/27 06:35:09;;;;;;;14.30;5.00;;;;;;;12.95;69.57;97945.05;108744;1253;94670;-74
2023/05/27 06:37:37;;;;;;;13.10;5.10;;;;;;;13.03;68.28;97943.16;108762;1251;101536;-74
2023/05/27 06:40:06;;;;;;;17.10;6.30;;;;;;;13.12;67.64;97943.38;108815;1251;101305;-76
2023/05/27 06:42:34;;;;;;;12.10;5.30;;;;;;;13.22;67.19;97942.41;108754;1253;98987;-77
2023/05/27 06:45:02;;;;;;;17.30;6.10;;;;;;;13.31;66.86;97941.58;108773;1251;94470;-77
2023/05/27 06:47:31;;;;;;;15.20;5.50;;;;;;;13.40;67.05;97941.90;108680;1253;94722;-76
2023/05/27 06:49:59;;;;;;;16.10;5.00;;;;;;;13.50;66.49;97941.06;108810;1253;102016;-76
2023/05/27 06:52:27;;;;;;;15.60;4.60;;;;;;;13.61;65.77;97943.59;108781;1251;110997;-74
2023/05/27 06:54:55;;;;;;;16.80;5.00;;;;;;;13.74;65.39;97944.63;108735;1251;99225;-74
2023/05/27 06:57:23;;;;;;;14.70;5.40;;;;;;;13.87;64.89;97939.33;108457;1253;95173;-78
2023/05/27 06:59:51;;;;;;;13.00;4.70;;;;;;;13.99;64.52;97942.84;108817;1251;94622;-74
2023/05/27 07:02:19;;;;;;;14.00;4.40;;;;;;;14.10;64.12;97943.93;108638;1251;102066;-78
2023/05/27 07:04:47;;;;;;;13.30;4.20;;;;;;;14.20;63.81;97942.51;108783;1251;101411;-74
2023/05/27 07:07:15;;;;;;;13.40;5.00;;;;;;;14.33;63.43;97944.49;108706;1253;98451;-76
2023/05/27 07:09:44;;;;;;;14.50;5.20;;;;;;;14.44;63.03;97940.86;108703;1253;94421;-74
2023/05/27 07:12:12;;;;;;;12.00;3.80;;;;;;;14.56;62.58;97937.88;108738;1251;94717;-75
2023/05/27 07:14:40;;;;;;;16.90;4.80;;;;;;;14.70;62.64;97944.59;108726;1252;102568;-76
2023/05/27 07:17:08;;;;;;;15.80;4.90;;;;;;;14.84;62.08;97943.08;108650;1251;102479;-77
2023/05/27 07:19:36;;;;;;;15.00;5.20;;;;;;;14.97;62.02;97946.48;108747;1251;100232;-76
2023/05/27 07:22:05;;;;;;;16.30;4.70;;;;;;;15.12;61.93;97942.41;108773;1251;94270;-74
2023/05/27 07:24:33;;;;;;;18.30;5.40;;;;;;;15.28;61.53;97940.59;108763;1253;94606;-74
2023/05/27 07:27:02;;;;;;;13.70;4.40;;;;;;;15.42;61.16;97939.79;108811;1251;102182;-74
2023/05/27 07:29:30;;;;;;;13.30;4.80;;;;;;;15.55;61.05;97935.15;108833;1251;100053;-74
2023/05/27 07:31:58;;;;;;;19.90;5.10;;;;;;;15.69;60.55;97934.84;108723;1251;100034;-74
2023/05/27 07:34:26;;;;;;;22.80;5.00;;;;;;;15.78;59.95;97937.12;108623;1253;94605;-76
2023/05/27 07:36:56;;;;;;;15.90;4.90;;;;;;;15.87;59.50;97936.01;108628;1251;94679;-75
2023/05/27 07:39:24;;;;;;;17.80;5.20;;;;;;;15.99;59.13;97936.49;108758;1253;102705;-74
2023/05/27 07:41:52;;;;;;;14.40;4.90;;;;;;;16.11;58.88;97935.93;108768;1251;101438;-77
2023/05/27 07:44:20;;;;;;;15.50;4.40;;;;;;;16.28;58.90;97939.13;108427;1253;99977;-77
2023/05/27 07:46:48;;;;;;;16.30;4.90;;;;;;;16.48;58.50;97937.27;108734;1255;94446;-75
2023/05/27 07:49:16;;;;;;;16.10;4.40;;;;;;;16.77;58.07;97934.52;108754;1251;94262;-77
2023/05/27 07:51:45;;;;;;;14.60;4.40;;;;;;;17.13;57.63;97930.81;108719;1251;102208;-74
2023/05/27 07:54:13;;;;;;;15.60;5.10;;;;;;;17.56;57.32;97925.15;108741;1253;101324;-73
2023/05/27 07:56:41;;;;;;;10.50;4.60;;;;;;;17.99;57.04;97922.30;108747;1251;100013;-75
2023/05/27 07:59:09;;;;;;;17.30;4.80;;;;;;;18.43;56.31;97922.68;108722;1251;94672;-73
2023/05/27 08:01:37;;;;;;;12.70;4.90;;;;;;;18.85;55.70;97918.48;108539;1257;94769;-75
2023/05/27 08:04:05;;;;;;;14.30;5.40;;;;;;;19.30;55.12;97915.34;108782;1251;101354;-75
2023/05/27 08:06:33;;;;;;;22.30;5.30;;;;;;;19.70;54.57;97922.20;108753;1251;101553;-75
2023/05/27 08:09:01;;;;;;;11.40;4.90;;;;;;;19.98;53.54;97920.81;108734;1251;99659;-73
2023/05/27 08:11:30;;;;;;;14.90;5.30;;;;;;;20.04;52.35;97923.55;108771;1251;94565;-76
2023/05/27 08:13:58;;;;;;;16.20;5.00;;;;;;;20.19;51.69;97919.64;108605;1253;94631;-74
2023/05/27 08:16:26;;;;;;;11.50;5.10;;;;;;;20.39;51.60;97918.78;108734;1251;101854;-73
2023/05/27 08:18:54;;;;;;;12.50;5.20;;;;;;;20.59;51.15;97919.17;108742;1251;101455;-73
2023/05/27 08:21:22;;;;;;;12.20;4.60;;;;;;;20.85;50.84;97913.58;108732;1251;100068;-76
2023/05/27 08:23:52;;;;;;;12.30;5.10;;;;;;;21.05;50.23;97911.73;108718;1251;94282;-74
2023/05/27 08:26:20;;;;;;;19.10;4.80;;;;;;;21.30;49.33;97907.42;108776;1251;94293;-75
2023/05/27 08:28:48;;;;;;;14.30;5.00;;;;;;;21.55;48.81;97906.98;108747;1251;102267;-75
2023/05/27 08:31:16;;;;;;;17.30;5.40;;;;;;;21.90;48.92;97901.25;108517;1253;101741;-74
2023/05/27 08:33:45;;;;;;;15.00;4.80;;;;;;;22.26;48.37;97899.99;108767;1251;99622;-81
2023/05/27 08:36:14;;;;;;;12.80;4.70;;;;;;;22.65;48.12;97900.59;108722;1251;94280;-74
2023/05/27 08:38:43;;;;;;;17.00;5.20;;;;;;;23.00;47.21;97897.14;108716;1251;95196;-73
2023/05/27 08:41:11;;;;;;;13.50;4.90;;;;;;;23.37;46.76;97899.93;108766;1251;102028;-74
2023/05/27 08:43:39;;;;;;;13.50;4.60;;;;;;;23.58;46.09;97897.94;108625;1253;101260;-74
2023/05/27 08:46:09;;;;;;;14.80;5.30;;;;;;;23.93;45.92;97896.96;108763;1251;99663;-73
2023/05/27 08:48:38;;;;;;;11.10;4.70;;;;;;;24.06;44.98;97895.61;108709;1251;94292;-76
2023/05/27 08:51:06;;;;;;;16.20;5.10;;;;;;;24.22;44.89;97888.73;108744;1251;94274;-74
2023/05/27 08:53:35;;;;;;;14.00;5.20;;;;;;;24.34;44.48;97887.77;108780;1251;102173;-74
2023/05/27 08:56:05;;;;;;;11.80;5.00;;;;;;;24.35;43.05;97887.32;108820;1251;101440;-76
2023/05/27 08:58:34;;;;;;;14.10;4.60;;;;;;;24.45;43.49;97884.04;108749;1251;101278;-74
2023/05/27 09:01:03;;;;;;;14.20;5.20;;;;;;;24.74;43.12;97883.20;108668;1251;94285;-73
2023/05/27 09:38:37;;;;;;;9.30;4.30;;;;;;;25.19;37.48;97862.77;102175;1292;635921;-76
2023/05/27 09:41:05;;;;;;;12.90;4.80;;;;;;;25.21;36.80;97861.86;104419;1287;95787;-76
2023/05/27 09:43:33;;;;;;;12.40;4.90;;;;;;;25.30;37.37;97864.11;104185;1269;96826;-75
2023/05/27 09:46:04;;;;;;;9.70;4.80;;;;;;;25.53;37.25;97863.00;104592;1271;100240;-78
2023/05/27 09:48:33;;;;;;;9.80;4.00;;;;;;;25.72;36.83;97857.39;104390;1277;101844;-77
2023/05/27 09:51:01;;;;;;;10.80;4.60;;;;;;;25.79;36.80;97853.81;104396;1275;100322;-76
2023/05/27 09:53:30;;;;;;;11.50;4.70;;;;;;;25.82;36.51;97854.20;104158;1279;95873;-75
2023/05/27 09:55:58;;;;;;;15.00;4.90;;;;;;;25.94;36.29;97857.12;104590;1266;96772;-75
2023/05/27 09:58:27;;;;;;;12.30;4.70;;;;;;;26.00;35.85;97856.86;104346;1269;100015;-74
2023/05/27 10:00:57;;;;;;;11.30;4.20;;;;;;;26.00;35.95;97860.47;104202;1280;100398;-75
2023/05/27 10:03:27;;;;;;;52.90;8.30;;;;;;;26.12;36.07;97858.23;104590;1274;100450;-75
2023/05/27 10:05:57;;;;;;;12.50;4.50;;;;;;;26.23;36.12;97855.18;104494;1266;97189;-75
2023/05/27 10:08:26;;;;;;;14.10;5.00;;;;;;;26.22;35.69;97848.66;104213;1280;95908;-78
2023/05/27 10:10:55;;;;;;;24.70;5.80;;;;;;;26.23;35.59;97847.55;104365;1270;101163;-76
2023/05/27 10:13:26;;;;;;;56.50;9.60;;;;;;;26.16;35.78;97846.77;104389;1267;101894;-77
2023/05/27 10:15:54;;;;;;;17.60;4.70;;;;;;;26.08;35.19;97844.70;104347;1272;100419;-74
2023/05/27 10:18:29;;;;;;;15.10;5.10;;;;;;;25.98;35.68;97850.02;104200;1279;96044;-74
2023/05/27 10:21:04;;;;;;;14.60;5.10;;;;;;;25.98;35.41;97848.44;104424;1269;95933;-75
2023/05/27 10:23:33;;;;;;;11.50;4.60;;;;;;;25.81;34.25;97848.41;104495;1269;101269;-75
2023/05/27 10:26:09;;;;;;;11.90;4.70;;;;;;;25.65;33.82;97849.46;104678;1276;101772;-74
2023/05/27 10:28:40;;;;;;;14.70;4.50;;;;;;;25.58;34.96;97848.33;104612;1274;98916;-77
2023/05/27 10:31:16;;;;;;;18.40;5.30;;;;;;;25.58;34.76;97853.65;104863;1255;96641;-75
2023/05/27 10:33:52;;;;;;;12.90;4.90;;;;;;;25.37;34.52;97857.23;105084;1259;96855;-74
2023/05/27 10:36:28;;;;;;;17.90;6.00;;;;;;;25.41;34.69;97856.79;105018;1260;101328;-78
2023/05/27 10:38:59;;;;;;;17.00;5.40;;;;;;;25.60;34.21;97852.80;105145;1254;101688;-75
2023/05/27 10:41:28;;;;;;;12.20;4.90;;;;;;;25.78;34.36;97843.48;104975;1258;99075;-75
2023/05/27 10:43:57;;;;;;;15.60;4.90;;;;;;;25.89;34.59;97846.10;105109;1254;96840;-75
2023/05/27 10:46:27;;;;;;;15.10;5.00;;;;;;;25.99;34.52;97843.73;104894;1264;97388;-75
2023/05/27 10:48:55;;;;;;;17.20;5.70;;;;;;;25.89;34.75;97841.44;105115;1260;101281;-75
2023/05/27 10:51:33;;;;;;;14.50;5.50;;;;;;;25.95;34.64;97843.11;104954;1255;99987;-74
2023/05/27 10:54:05;;;;;;;11.50;4.70;;;;;;;25.95;33.80;97840.18;104861;1261;98923;-77
2023/05/27 10:56:33;;;;;;;15.10;5.10;;;;;;;25.98;33.40;97834.67;105136;1260;96673;-75
2023/05/27 10:59:03;;;;;;;13.00;5.70;;;;;;;26.12;33.39;97838.74;104744;1254;95941;-77
2023/05/27 11:01:34;;;;;;;16.20;5.40;;;;;;;26.11;33.35;97832.89;104944;1260;101318;-74
2023/05/27 11:04:02;;;;;;;13.40;5.40;;;;;;;26.06;33.42;97834.71;104919;1273;101691;-77
2023/05/27 11:06:30;;;;;;;16.00;5.60;;;;;;;25.95;33.72;97835.86;105075;1254;100574;-75
2023/05/27 11:08:58;;;;;;;14.00;5.40;;;;;;;25.57;33.47;97836.41;104956;1268;95906;-74
2023/05/27 11:11:27;;;;;;;12.40;5.20;;;;;;;25.28;33.48;97832.36;104914;1258;96030;-78
2023/05/27 11:13:55;;;;;;;13.30;4.80;;;;;;;25.30;33.92;97830.34;104619;1265;99844;-75
2023/05/27 11:16:23;;;;;;;14.30;5.30;;;;;;;25.44;34.24;97826.13;104965;1278;101912;-75
2023/05/27 11:18:51;;;;;;;11.60;5.10;;;;;;;25.52;34.03;97825.96;105013;1268;100222;-75
2023/05/27 11:21:20;;;;;;;15.50;5.50;;;;;;;25.51;33.92;97823.87;104641;1260;96811;-74
2023/05/27 11:23:49;;;;;;;12.30;4.90;;;;;;;25.60;33.55;97821.27;105010;1254;96485;-75
2023/05/27 11:26:23;;;;;;;12.20;4.60;;;;;;;25.54;33.86;97821.46;104956;1260;101401;-75
2023/05/27 11:28:57;;;;;;;10.90;5.20;;;;;;;25.53;33.55;97819.77;105029;1268;100327;-75
2023/05/27 11:31:32;;;;;;;21.30;5.80;;;;;;;25.54;33.69;97822.02;104765;1254;100351;-76
2023/05/27 11:34:01;;;;;;;8.80;4.90;;;;;;;25.69;33.91;97825.42;104918;1259;96694;-75
2023/05/27 11:36:31;;;;;;;12.40;4.80;;;;;;;25.84;32.81;97822.91;105072;1254;95999;-75
2023/05/27 11:39:01;;;;;;;14.30;6.10;;;;;;;25.87;32.27;97818.96;104985;1260;101295;-75
2023/05/27 11:41:31;;;;;;;13.90;6.10;;;;;;;25.56;32.21;97817.63;105082;1270;101628;-77
2023/05/27 11:44:06;;;;;;;11.00;5.20;;;;;;;25.36;32.99;97821.31;104933;1260;100636;-75
2023/05/27 11:46:39;;;;;;;12.70;5.10;;;;;;;25.48;33.46;97816.67;105026;1259;96501;-73
2023/05/27 11:49:13;;;;;;;11.10;5.10;;;;;;;25.58;32.62;97812.19;105172;1269;97193;-76
2023/05/27 11:51:44;;;;;;;13.30;4.90;;;;;;;25.66;32.31;97812.48;104902;1260;101079;-76
2023/05/27 11:54:32;;;;;;;11.40;5.80;;;;;;;25.75;32.26;97810.95;105033;1260;101831;-75
2023/05/27 11:57:00;;;;;;;16.50;5.50;;;;;;;25.49;33.06;97811.14;104911;1258;100409;-75
2023/05/27 11:59:28;;;;;;;14.90;5.30;;;;;;;25.49;32.87;97811.86;104903;1260;96133;-75